Time;durP1;ratioP1;P1;durP2;ratioP2;P2;SDS_P1;SDS_P2;PMS_P1;PMS_P2;Temp;Humidity;BMP_temperature;BMP_pressure;BME280_temperature;BME280_humidity;BME280_pressure;Samples;Min_cycle;Max_cycle;Signal;HPM_P1;HPM_P2
2023/09/16 00:01:45;;;;;;;9.57;7.18;;;;;;;16.54;100.00;97188.88;5079764;28;20916;-77
2023/09/16 00:04:12;;;;;;;9.55;7.25;;;;;;;16.51;100.00;97188.69;5071689;28;20960;-77
2023/09/16 00:06:38;;;;;;;8.00;6.30;;;;;;;16.48;100.00;97198.06;5079254;28;20395;-77
2023/09/16 00:09:04;;;;;;;7.35;5.97;;;;;;;16.45;100.00;97193.34;5079223;28;20454;-77
2023/09/16 00:11:30;;;;;;;8.65;6.45;;;;;;;16.42;100.00;97193.09;5079654;28;20400;-77
2023/09/16 00:13:57;;;;;;;9.68;7.30;;;;;;;16.36;100.00;97195.06;5070889;28;20393;-77
2023/09/16 00:16:23;;;;;;;7.82;6.57;;;;;;;16.35;100.00;97195.38;5078648;28;20911;-77
2023/09/16 00:18:51;;;;;;;10.60;7.40;;;;;;;16.29;100.00;97189.31;5079477;28;20475;-77
2023/09/16 00:21:17;;;;;;;8.60;7.10;;;;;;;16.25;100.00;97193.66;5079135;28;20399;-77
2023/09/16 00:23:44;;;;;;;8.68;7.43;;;;;;;16.20;100.00;97199.06;5071002;28;20397;-77
2023/09/16 00:26:10;;;;;;;9.60;7.50;;;;;;;16.17;100.00;97192.44;5059402;28;20398;-77
2023/09/16 00:28:36;;;;;;;11.20;6.82;;;;;;;16.13;100.00;97202.13;5074385;28;20446;-76
2023/09/16 00:31:03;;;;;;;9.60;7.57;;;;;;;16.11;100.00;97195.47;5078992;28;20407;-77
2023/09/16 00:33:29;;;;;;;8.77;6.88;;;;;;;16.09;100.00;97194.97;5079182;28;20761;-76
2023/09/16 00:35:58;;;;;;;9.15;7.53;;;;;;;16.05;100.00;97193.97;5078324;28;20407;-78
2023/09/16 00:38:24;;;;;;;9.00;7.15;;;;;;;16.02;100.00;97202.56;5078327;28;20400;-77
2023/09/16 00:40:51;;;;;;;10.70;7.50;;;;;;;15.99;100.00;97195.94;5077529;28;20414;-77
2023/09/16 00:43:17;;;;;;;8.55;6.53;;;;;;;15.99;100.00;97190.59;5067134;28;20806;-77
2023/09/16 00:45:43;;;;;;;8.13;6.28;;;;;;;15.98;100.00;97194.34;5074583;28;20490;-77
2023/09/16 00:48:12;;;;;;;8.30;6.63;;;;;;;15.97;100.00;97195.41;5076911;28;20454;-76
2023/09/16 00:50:39;;;;;;;9.43;7.43;;;;;;;15.95;100.00;97191.44;5077303;28;20578;-77
2023/09/16 00:53:06;;;;;;;9.00;6.70;;;;;;;15.92;100.00;97187.50;5077527;28;20495;-77
2023/09/16 00:55:32;;;;;;;9.05;6.57;;;;;;;15.91;100.00;97193.13;5077193;28;20400;-77
2023/09/16 00:57:59;;;;;;;9.20;7.03;;;;;;;15.87;100.00;97193.69;5077454;28;20414;-77
2023/09/16 01:00:28;;;;;;;8.23;6.45;;;;;;;15.85;100.00;97195.88;5069549;28;20753;-78
2023/09/16 01:02:58;;;;;;;7.97;6.57;;;;;;;15.82;100.00;97191.09;5078347;28;20454;-78
2023/09/16 01:05:26;;;;;;;8.73;7.00;;;;;;;15.81;100.00;97194.84;5077157;28;20402;-78
2023/09/16 01:07:52;;;;;;;8.88;6.80;;;;;;;15.79;100.00;97196.22;5068339;28;20426;-77
2023/09/16 01:10:21;;;;;;;8.75;6.65;;;;;;;15.78;100.00;97192.78;5076395;28;20873;-78
2023/09/16 01:12:50;;;;;;;9.75;7.30;;;;;;;15.78;100.00;97197.31;5075981;28;20422;-78
2023/09/16 01:15:18;;;;;;;8.25;6.68;;;;;;;15.76;100.00;97189.59;5070045;28;20752;-78
2023/09/16 01:17:54;;;;;;;9.93;7.55;;;;;;;15.74;100.00;97194.41;5062177;28;20401;-78
2023/09/16 01:20:21;;;;;;;8.15;6.55;;;;;;;15.73;100.00;97190.16;5071701;28;20414;-78
2023/09/16 01:22:49;;;;;;;9.48;7.18;;;;;;;15.71;100.00;97197.66;5078895;28;20482;-78
2023/09/16 01:25:17;;;;;;;8.48;6.82;;;;;;;15.69;100.00;97194.50;5078292;28;20404;-78
2023/09/16 01:27:43;;;;;;;9.40;7.05;;;;;;;15.68;100.00;97192.13;5078031;28;20474;-78
2023/09/16 01:30:13;;;;;;;9.38;7.50;;;;;;;15.64;100.00;97189.22;5076729;28;20431;-76
2023/09/16 01:32:45;;;;;;;9.07;7.10;;;;;;;15.59;100.00;97186.63;5075849;28;20395;-77
2023/09/16 01:35:14;;;;;;;10.52;7.93;;;;;;;15.58;100.00;97190.38;5075244;28;20404;-77
2023/09/16 01:37:44;;;;;;;10.02;7.60;;;;;;;15.56;100.00;97187.22;5075382;28;20396;-77
2023/09/16 01:40:11;;;;;;;10.70;7.77;;;;;;;15.55;100.00;97190.97;5075146;28;20461;-77
2023/09/16 01:42:41;;;;;;;9.30;7.27;;;;;;;15.54;100.00;97189.38;5066207;28;20396;-77
2023/09/16 01:45:10;;;;;;;10.30;7.78;;;;;;;15.50;100.00;97191.78;5066320;28;20422;-77
2023/09/16 01:47:37;;;;;;;9.40;7.60;;;;;;;15.50;100.00;97185.63;5066244;28;20396;-77
2023/09/16 01:50:05;;;;;;;10.25;7.90;;;;;;;15.45;100.00;97191.84;5074934;28;20504;-77
2023/09/16 01:52:32;;;;;;;8.73;6.82;;;;;;;15.43;100.00;97190.53;5074375;28;20438;-77
2023/09/16 01:54:58;;;;;;;9.15;6.63;;;;;;;15.41;100.00;97195.38;5074542;28;20487;-76
2023/09/16 01:57:24;;;;;;;11.00;7.05;;;;;;;15.40;100.00;97199.94;5074370;28;20404;-77
2023/09/16 01:59:52;;;;;;;8.02;6.60;;;;;;;15.37;100.00;97197.81;5074334;28;20469;-77
2023/09/16 02:02:19;;;;;;;10.35;7.72;;;;;;;15.36;100.00;97192.75;5074268;28;20446;-77
2023/09/16 02:04:45;;;;;;;10.70;7.53;;;;;;;15.35;100.00;97196.50;5073239;28;20392;-77
2023/09/16 02:07:11;;;;;;;9.57;7.60;;;;;;;15.33;100.00;97198.69;5073754;28;20524;-77
2023/09/16 02:09:37;;;;;;;9.47;6.97;;;;;;;15.35;100.00;97196.50;5074077;28;20483;-77
2023/09/16 02:12:04;;;;;;;9.77;7.70;;;;;;;15.34;100.00;97194.91;5073571;28;20866;-78
2023/09/16 02:14:35;;;;;;;9.23;7.45;;;;;;;15.33;100.00;97199.47;5065055;28;20411;-77
2023/09/16 02:17:03;;;;;;;9.30;6.82;;;;;;;15.31;100.00;97196.28;5065764;28;20397;-77
2023/09/16 02:19:32;;;;;;;8.20;6.55;;;;;;;15.32;100.00;97202.44;5073788;28;20412;-77
2023/09/16 02:21:58;;;;;;;10.52;7.88;;;;;;;15.28;100.00;97202.19;5073118;28;20400;-77
2023/09/16 02:24:25;;;;;;;9.85;7.78;;;;;;;15.27;100.00;97210.47;5064822;28;20414;-77
2023/09/16 02:26:51;;;;;;;9.45;7.38;;;;;;;15.24;100.00;97205.72;5065428;28;20419;-77
2023/09/16 02:29:17;;;;;;;9.60;7.28;;;;;;;15.22;100.00;97210.53;5068564;28;20427;-77
2023/09/16 02:31:43;;;;;;;9.70;7.25;;;;;;;15.21;100.00;97211.63;5069611;28;20407;-77
2023/09/16 02:34:11;;;;;;;10.40;7.70;;;;;;;15.20;100.00;97208.16;5066009;28;20928;-77
2023/09/16 02:36:37;;;;;;;10.32;7.50;;;;;;;15.20;100.00;97212.69;5073276;28;20407;-77
2023/09/16 02:39:04;;;;;;;10.45;8.07;;;;;;;15.20;100.00;97210.03;5073185;28;20430;-77
2023/09/16 02:41:30;;;;;;;9.10;7.33;;;;;;;15.20;100.00;97216.16;5073938;28;20912;-77
2023/09/16 02:43:56;;;;;;;9.45;7.20;;;;;;;15.19;100.00;97211.88;5074346;28;20450;-77
2023/09/16 02:46:22;;;;;;;9.70;7.40;;;;;;;15.18;100.00;97215.66;5069169;28;20404;-77
2023/09/16 02:48:49;;;;;;;9.38;6.70;;;;;;;15.20;100.00;97207.34;5062707;28;20894;-77
2023/09/16 02:51:16;;;;;;;10.23;7.77;;;;;;;15.19;100.00;97208.44;5053693;28;20401;-77
2023/09/16 02:53:43;;;;;;;11.93;9.00;;;;;;;15.19;100.00;97208.44;5068546;28;20420;-77
2023/09/16 02:56:10;;;;;;;11.02;8.18;;;;;;;15.18;100.00;97201.53;5070725;28;20401;-77
2023/09/16 02:58:36;;;;;;;10.57;8.55;;;;;;;15.19;100.00;97200.44;5069237;28;20392;-77
2023/09/16 03:01:08;;;;;;;9.57;7.72;;;;;;;15.19;100.00;97201.22;5074281;28;20400;-77
2023/09/16 03:03:35;;;;;;;9.48;7.72;;;;;;;15.19;100.00;97208.44;5072402;28;20453;-78
2023/09/16 03:06:01;;;;;;;13.35;9.82;;;;;;;15.23;100.00;97207.59;5073546;28;20409;-77
2023/09/16 03:08:29;;;;;;;11.70;8.48;;;;;;;15.27;100.00;97205.13;5074339;28;20407;-77
2023/09/16 03:10:59;;;;;;;11.63;8.48;;;;;;;15.29;100.00;97208.31;5073646;28;20396;-78
2023/09/16 03:13:25;;;;;;;10.75;8.18;;;;;;;15.30;100.00;97204.56;5090144;28;20406;-78
2023/09/16 03:16:13;;;;;;;11.85;8.45;;;;;;;15.28;100.00;97202.19;5068106;28;20405;-78
2023/09/16 03:18:39;;;;;;;8.87;7.30;;;;;;;15.27;100.00;97191.81;5076741;28;20838;-78
2023/09/16 03:21:07;;;;;;;8.93;6.88;;;;;;;15.26;100.00;97191.00;5076085;28;20432;-78
2023/09/16 03:23:34;;;;;;;9.57;6.82;;;;;;;15.26;100.00;97190.25;5090694;28;20408;-77
2023/09/16 03:26:01;;;;;;;7.50;6.00;;;;;;;15.24;100.00;97187.06;5076314;28;20404;-77
2023/09/16 03:28:27;;;;;;;9.80;7.00;;;;;;;15.21;100.00;97188.41;5076085;28;20498;-77
2023/09/16 03:30:53;;;;;;;8.50;6.45;;;;;;;15.17;100.00;97187.41;5074721;28;20429;-77
2023/09/16 03:33:19;;;;;;;8.30;6.55;;;;;;;15.17;100.00;97192.75;5073829;28;20403;-77
2023/09/16 03:35:46;;;;;;;8.85;6.63;;;;;;;15.13;100.00;97191.72;5073682;28;20861;-77
2023/09/16 03:38:12;;;;;;;10.27;7.57;;;;;;;15.11;100.00;97183.19;5074009;28;20400;-78
2023/09/16 03:40:39;;;;;;;9.60;7.73;;;;;;;15.07;100.00;97182.19;5073400;28;20952;-77
2023/09/16 03:43:06;;;;;;;10.25;7.50;;;;;;;15.05;100.00;97181.66;5073265;28;20960;-78
2023/09/16 03:45:32;;;;;;;10.38;7.88;;;;;;;15.03;100.00;97186.50;5073185;28;20400;-78
2023/09/16 03:47:58;;;;;;;9.82;7.80;;;;;;;15.02;100.00;97180.38;5065539;28;20769;-77
2023/09/16 03:50:25;;;;;;;14.20;9.53;;;;;;;15.01;100.00;97176.13;5073440;28;20878;-77
2023/09/16 03:52:53;;;;;;;13.30;9.50;;;;;;;14.98;100.00;97183.88;5073278;28;20453;-77
2023/09/16 03:55:20;;;;;;;10.75;8.00;;;;;;;14.96;100.00;97176.16;5072792;28;20487;-77
2023/09/16 03:57:49;;;;;;;11.45;8.88;;;;;;;14.94;100.00;97173.00;5073211;28;20396;-77
2023/09/16 04:00:16;;;;;;;11.95;9.23;;;;;;;14.93;100.00;97175.94;5073197;28;20396;-77
2023/09/16 04:02:42;;;;;;;11.52;8.93;;;;;;;14.90;100.00;97169.31;5072814;28;20396;-77
2023/09/16 04:05:08;;;;;;;12.33;9.00;;;;;;;14.90;100.00;97173.84;5072647;28;20469;-77
2023/09/16 04:07:34;;;;;;;11.63;8.82;;;;;;;14.89;100.00;97169.59;5072887;28;20412;-77
2023/09/16 04:10:01;;;;;;;10.63;7.88;;;;;;;14.88;100.00;97176.03;5072511;28;20416;-77
2023/09/16 04:12:27;;;;;;;9.02;7.50;;;;;;;14.85;100.00;97177.38;5073402;28;20408;-78
2023/09/16 04:14:55;;;;;;;9.60;7.25;;;;;;;14.84;100.00;97169.66;5064589;28;20806;-77
2023/09/16 04:17:21;;;;;;;11.05;8.45;;;;;;;14.77;100.00;97175.31;5076007;28;20411;-77
2023/09/16 04:19:47;;;;;;;10.15;7.90;;;;;;;14.76;100.00;97178.25;5076300;28;20395;-77
2023/09/16 04:22:13;;;;;;;11.43;8.50;;;;;;;14.75;100.00;97182.00;5075293;28;20466;-77
2023/09/16 04:24:40;;;;;;;10.23;8.15;;;;;;;14.73;100.00;97165.53;5067269;28;20408;-77
2023/09/16 04:27:06;;;;;;;13.00;9.85;;;;;;;14.70;100.00;97180.19;5075113;28;20499;-77
2023/09/16 04:29:32;;;;;;;12.90;8.65;;;;;;;14.67;100.00;97178.06;5090841;28;20821;-77
2023/09/16 04:32:01;;;;;;;13.25;9.15;;;;;;;14.65;100.00;97175.72;5074935;28;20456;-78
2023/09/16 04:34:27;;;;;;;12.52;8.95;;;;;;;14.63;100.00;97169.88;5075037;28;20407;-77
2023/09/16 04:36:55;;;;;;;12.80;9.43;;;;;;;14.60;100.00;97178.41;5076376;28;20396;-78
2023/09/16 04:39:23;;;;;;;11.38;8.52;;;;;;;14.58;100.00;97174.47;5075857;28;20758;-77
2023/09/16 04:41:56;;;;;;;10.52;8.23;;;;;;;14.56;100.00;97173.94;5074892;28;20430;-77
2023/09/16 04:44:23;;;;;;;11.07;8.55;;;;;;;14.56;100.00;97169.41;5075065;28;20768;-77
2023/09/16 04:46:53;;;;;;;11.70;9.00;;;;;;;14.55;100.00;97175.00;5075649;28;20399;-77
2023/09/16 04:49:20;;;;;;;10.55;8.27;;;;;;;14.54;100.00;97173.41;5076578;28;20415;-78
2023/09/16 04:51:47;;;;;;;10.32;7.90;;;;;;;14.51;100.00;97163.34;5074241;28;20410;-77
2023/09/16 04:54:13;;;;;;;13.05;9.18;;;;;;;14.47;100.00;97165.75;5072377;28;20829;-76
2023/09/16 04:56:40;;;;;;;10.37;8.47;;;;;;;14.46;100.00;97166.84;5072052;28;20881;-76
2023/09/16 04:59:06;;;;;;;12.23;8.52;;;;;;;14.46;100.00;97163.38;5072857;28;20408;-76
2023/09/16 05:01:33;;;;;;;12.57;8.55;;;;;;;14.44;100.00;97160.97;5073198;28;20406;-76
2023/09/16 05:04:02;;;;;;;11.48;7.95;;;;;;;14.43;100.00;97161.28;5071501;28;20411;-77
2023/09/16 05:06:29;;;;;;;12.70;9.13;;;;;;;14.45;100.00;97164.44;5072183;28;20499;-77
2023/09/16 05:08:55;;;;;;;20.87;11.30;;;;;;;14.44;100.00;97168.19;5071984;28;20411;-77
2023/09/16 05:11:22;;;;;;;14.05;10.52;;;;;;;14.41;100.00;97169.56;5071595;28;20415;-76
2023/09/16 05:13:50;;;;;;;13.23;9.68;;;;;;;14.40;100.00;97167.97;5071964;28;20395;-76
2023/09/16 05:16:16;;;;;;;15.40;10.98;;;;;;;14.37;100.00;97165.03;5071492;28;20403;-77
2023/09/16 05:18:43;;;;;;;14.18;9.88;;;;;;;14.39;100.00;97162.91;5071865;28;20400;-77
2023/09/16 05:21:10;;;;;;;15.20;10.48;;;;;;;14.40;100.00;97167.97;5071554;28;20406;-77
2023/09/16 05:23:37;;;;;;;13.50;10.50;;;;;;;14.43;100.00;97163.94;5071547;28;20912;-77
2023/09/16 05:26:05;;;;;;;13.25;9.65;;;;;;;14.44;100.00;97166.31;5070982;28;20407;-77
2023/09/16 05:28:31;;;;;;;13.02;9.27;;;;;;;14.46;100.00;97160.72;5071605;28;20781;-76
2023/09/16 05:30:57;;;;;;;11.90;9.07;;;;;;;14.46;100.00;97158.03;5071298;28;20403;-77
2023/09/16 05:33:24;;;;;;;13.68;10.25;;;;;;;14.45;100.00;97161.78;5071735;28;20788;-77
2023/09/16 05:35:51;;;;;;;14.77;10.85;;;;;;;14.45;100.00;97167.91;5070891;28;20848;-77
2023/09/16 05:38:17;;;;;;;14.35;9.63;;;;;;;14.47;100.00;97165.75;5073365;28;20406;-78
2023/09/16 05:40:45;;;;;;;17.30;10.90;;;;;;;14.49;100.00;97168.94;5057921;28;20397;-78
2023/09/16 05:43:11;;;;;;;14.70;10.60;;;;;;;14.50;100.00;97167.06;5066191;28;20458;-77
2023/09/16 05:45:37;;;;;;;13.27;9.70;;;;;;;14.52;100.00;97165.72;5072281;28;20406;-77
2023/09/16 05:48:04;;;;;;;12.63;9.63;;;;;;;14.56;100.00;97166.75;5072571;28;20889;-77
2023/09/16 05:50:31;;;;;;;23.05;14.98;;;;;;;14.65;100.00;97174.91;5072797;28;20415;-77
2023/09/16 05:52:57;;;;;;;22.33;14.95;;;;;;;14.73;100.00;97168.97;5073435;28;20400;-77
2023/09/16 05:55:23;;;;;;;19.08;13.88;;;;;;;14.81;100.00;97179.00;5065731;28;20483;-77
2023/09/16 05:57:51;;;;;;;17.55;12.57;;;;;;;14.90;100.00;97163.97;5072821;28;20410;-77
2023/09/16 06:00:17;;;;;;;16.05;11.48;;;;;;;14.97;100.00;97160.97;5071741;28;20404;-76
2023/09/16 06:02:43;;;;;;;17.77;11.15;;;;;;;15.03;100.00;97155.31;5071889;28;20404;-76
2023/09/16 06:05:10;;;;;;;12.73;9.57;;;;;;;15.07;100.00;97152.84;5060450;28;20405;-77
2023/09/16 06:07:39;;;;;;;15.38;10.80;;;;;;;15.11;100.00;97162.66;5056776;28;20496;-77
2023/09/16 06:10:06;;;;;;;14.57;10.77;;;;;;;15.15;100.00;97157.56;5064491;28;20427;-77
2023/09/16 06:12:33;;;;;;;16.77;11.82;;;;;;;15.21;100.00;97158.28;5064909;28;20405;-77
2023/09/16 06:15:01;;;;;;;17.98;13.38;;;;;;;15.28;100.00;97164.06;5067145;28;20410;-77
2023/09/16 06:17:27;;;;;;;17.33;12.55;;;;;;;15.34;100.00;97169.03;5066582;28;20428;-77
2023/09/16 06:19:55;;;;;;;16.10;11.93;;;;;;;15.41;100.00;97164.16;5064420;28;20896;-76
2023/09/16 06:22:22;;;;;;;17.20;11.95;;;;;;;15.47;100.00;97162.22;5066320;28;20415;-77
2023/09/16 06:24:49;;;;;;;14.43;10.73;;;;;;;15.54;100.00;97168.03;5068528;28;20482;-77
2023/09/16 06:27:15;;;;;;;14.98;11.13;;;;;;;15.59;100.00;97167.94;5070112;28;20395;-78
2023/09/16 06:29:43;;;;;;;18.03;12.47;;;;;;;15.64;100.00;97167.88;5071491;28;20411;-77
2023/09/16 06:32:10;;;;;;;14.98;11.40;;;;;;;15.71;100.00;97167.53;5068856;28;20429;-78
2023/09/16 06:34:37;;;;;;;19.95;13.75;;;;;;;15.79;100.00;97166.84;5069559;28;20414;-78
2023/09/16 06:37:05;;;;;;;21.85;15.98;;;;;;;15.88;100.00;97173.13;5073320;28;20407;-78
2023/09/16 06:39:32;;;;;;;24.15;15.85;;;;;;;15.96;100.00;97172.47;5073189;28;20392;-78
2023/09/16 06:41:58;;;;;;;24.73;15.50;;;;;;;16.08;100.00;97169.38;5069892;28;20483;-77
2023/09/16 06:44:24;;;;;;;20.08;13.95;;;;;;;16.18;100.00;97153.16;5071602;28;20450;-78
2023/09/16 06:46:51;;;;;;;27.42;15.25;;;;;;;16.29;100.00;97159.16;5072459;28;20881;-78
2023/09/16 06:49:18;;;;;;;23.98;16.88;;;;;;;16.39;100.00;97154.41;5088299;28;20918;-78
2023/09/16 06:51:45;;;;;;;19.20;14.07;;;;;;;16.50;100.00;97161.16;5066098;28;20485;-78
2023/09/16 06:54:11;;;;;;;21.40;15.20;;;;;;;16.66;100.00;97155.59;5069264;28;20491;-77
2023/09/16 06:56:37;;;;;;;24.10;15.40;;;;;;;16.78;100.00;97145.19;5064213;28;20401;-77
2023/09/16 06:59:03;;;;;;;23.17;15.57;;;;;;;16.88;100.00;97156.50;5067367;28;20392;-77
2023/09/16 07:01:30;;;;;;;21.48;14.55;;;;;;;17.00;100.00;97153.31;5067157;28;20400;-77
2023/09/16 07:03:57;;;;;;;18.27;12.88;;;;;;;17.13;100.00;97151.75;5061453;28;20403;-77
2023/09/16 07:06:25;;;;;;;16.58;11.95;;;;;;;17.25;100.00;97160.03;5069593;28;20403;-77
2023/09/16 07:08:51;;;;;;;19.00;13.63;;;;;;;17.42;100.00;97163.69;5065183;28;20448;-77
2023/09/16 07:11:18;;;;;;;18.77;12.60;;;;;;;17.51;100.00;97163.00;5068154;28;20405;-78
2023/09/16 07:13:44;;;;;;;13.55;10.27;;;;;;;17.60;100.00;97161.94;5062548;28;20404;-77
2023/09/16 07:16:11;;;;;;;13.57;10.23;;;;;;;17.68;100.00;97152.44;5066421;28;20418;-77
2023/09/16 07:18:37;;;;;;;11.83;8.50;;;;;;;17.74;100.00;97157.38;5066132;28;20473;-78
2023/09/16 07:21:04;;;;;;;13.18;9.40;;;;;;;17.82;100.00;97149.75;5067285;28;20866;-78
2023/09/16 07:23:32;;;;;;;10.05;8.25;;;;;;;17.87;100.00;97160.34;5059332;28;20436;-78
2023/09/16 07:25:59;;;;;;;10.30;7.47;;;;;;;17.93;100.00;97157.22;5065666;28;20413;-77
2023/09/16 07:28:27;;;;;;;11.30;8.50;;;;;;;17.98;100.00;97159.78;5065554;28;20422;-77
2023/09/16 07:30:53;;;;;;;11.02;8.13;;;;;;;18.05;100.00;97160.16;5060628;28;20405;-77
2023/09/16 07:33:20;;;;;;;14.68;10.93;;;;;;;18.08;100.00;97164.91;5060202;28;20435;-77
2023/09/16 07:35:47;;;;;;;20.77;13.38;;;;;;;18.07;100.00;97160.63;5060555;28;20400;-77
2023/09/16 07:38:15;;;;;;;16.23;11.73;;;;;;;18.13;100.00;97159.41;5057950;28;20470;-77
2023/09/16 07:40:42;;;;;;;15.45;11.57;;;;;;;18.19;100.00;97158.19;5058672;28;20405;-77
2023/09/16 07:43:11;;;;;;;12.25;9.30;;;;;;;18.27;100.00;97151.31;5063553;28;20409;-78
2023/09/16 07:45:38;;;;;;;12.07;9.00;;;;;;;18.34;100.00;97146.34;5063521;28;20446;-79
2023/09/16 07:48:09;;;;;;;9.45;8.18;;;;;;;18.46;100.00;97151.91;5067865;28;20392;-79
2023/09/16 07:50:35;;;;;;;16.45;11.60;;;;;;;18.48;100.00;97160.44;5079590;28;20420;-79
2023/09/16 07:53:02;;;;;;;15.18;11.25;;;;;;;18.61;100.00;97158.81;5080299;28;20842;-78
2023/09/16 07:55:28;;;;;;;17.38;13.20;;;;;;;18.68;100.00;97159.16;5081078;28;20559;-79
2023/09/16 07:57:56;;;;;;;12.77;9.88;;;;;;;18.84;100.00;97160.31;5073278;28;20409;-78
2023/09/16 08:00:22;;;;;;;14.10;10.88;;;;;;;19.02;100.00;97174.56;5070031;28;20393;-78
2023/09/16 08:02:48;;;;;;;14.02;10.65;;;;;;;19.15;100.00;97176.38;5081059;28;20408;-78
2023/09/16 08:05:15;;;;;;;12.40;9.17;;;;;;;19.36;100.00;97179.28;5076499;28;20403;-78
2023/09/16 08:07:41;;;;;;;11.25;8.88;;;;;;;19.53;100.00;97183.94;5074861;28;20426;-78
2023/09/16 08:10:09;;;;;;;16.38;12.15;;;;;;;19.64;100.00;97175.25;5078834;28;20469;-78
2023/09/16 08:12:37;;;;;;;14.07;10.47;;;;;;;19.82;100.00;97177.94;5079736;28;20765;-78
2023/09/16 08:15:07;;;;;;;11.30;8.63;;;;;;;19.98;100.00;97174.47;5083815;28;20400;-78
2023/09/16 08:17:33;;;;;;;14.00;10.40;;;;;;;20.09;100.00;97173.03;5083960;28;20403;-77
2023/09/16 08:20:00;;;;;;;15.90;10.73;;;;;;;20.22;100.00;97176.69;5083821;28;20407;-78
2023/09/16 08:22:27;;;;;;;16.38;11.60;;;;;;;20.28;100.00;97178.09;5085408;28;20423;-77
2023/09/16 08:24:54;;;;;;;13.35;9.30;;;;;;;20.42;100.00;97184.13;5090917;28;20402;-77
2023/09/16 08:27:21;;;;;;;14.27;10.37;;;;;;;20.59;100.00;97188.66;5074655;28;20520;-78
2023/09/16 08:29:49;;;;;;;13.67;10.40;;;;;;;20.79;100.00;97185.28;5082483;28;20446;-78
2023/09/16 08:32:17;;;;;;;16.52;11.52;;;;;;;21.00;100.00;97196.13;5071722;28;20888;-76
2023/09/16 08:34:43;;;;;;;15.20;10.03;;;;;;;21.17;100.00;97196.09;5078575;28;20401;-78
2023/09/16 08:37:11;;;;;;;14.10;9.15;;;;;;;21.35;100.00;97202.16;5084230;28;20399;-78
2023/09/16 08:39:37;;;;;;;15.52;10.45;;;;;;;21.36;100.00;97192.19;5084612;28;20398;-78
2023/09/16 08:42:11;;;;;;;9.98;8.05;;;;;;;21.52;100.00;97187.81;5076635;28;20433;-78
2023/09/16 08:44:41;;;;;;;10.63;7.93;;;;;;;21.58;100.00;97187.28;5081214;28;20400;-78
2023/09/16 08:47:14;;;;;;;10.97;7.77;;;;;;;21.66;100.00;97193.75;5074671;28;20481;-77
2023/09/16 08:49:53;;;;;;;8.40;6.57;;;;;;;21.73;100.00;97193.22;5093225;28;20416;-78
2023/09/16 08:52:21;;;;;;;7.05;5.60;;;;;;;21.80;100.00;97198.91;5090487;28;20401;-77
2023/09/16 08:54:51;;;;;;;8.43;6.25;;;;;;;21.83;100.00;97206.31;5076834;28;20399;-75
2023/09/16 08:57:18;;;;;;;16.58;9.63;;;;;;;21.54;100.00;97202.53;5075687;28;20392;-77
2023/09/16 08:59:45;;;;;;;9.63;7.05;;;;;;;21.47;100.00;97196.09;5072278;28;20466;-78
2023/09/16 09:02:12;;;;;;;8.25;6.93;;;;;;;21.25;100.00;97199.84;5077160;28;20423;-78
2023/09/16 09:04:41;;;;;;;7.18;5.65;;;;;;;21.08;100.00;97189.13;5077428;28;20410;-78
2023/09/16 09:07:09;;;;;;;7.00;5.65;;;;;;;21.02;100.00;97195.81;5075577;28;20429;-78
2023/09/16 09:09:37;;;;;;;8.17;5.93;;;;;;;21.11;100.00;97194.66;5072065;28;20411;-77
2023/09/16 09:12:07;;;;;;;7.05;5.35;;;;;;;21.35;100.00;97191.38;5079132;28;20811;-77
2023/09/16 09:15:14;;;;;;;7.78;6.07;;;;;;;21.74;100.00;97192.09;5072660;28;20397;-77
2023/09/16 09:18:25;;;;;;;7.10;5.15;;;;;;;22.08;100.00;97197.28;5083722;28;20427;-78
2023/09/16 09:21:51;;;;;;;5.45;4.70;;;;;;;22.41;100.00;97189.19;5056442;28;20421;-78
2023/09/16 09:24:17;;;;;;;6.55;4.95;;;;;;;22.55;100.00;97186.22;5088362;22;20936;-77
2023/09/16 09:26:43;;;;;;;7.00;5.70;;;;;;;22.56;100.00;97177.78;5085828;28;20451;-78
2023/09/16 09:29:12;;;;;;;6.68;5.38;;;;;;;22.73;100.00;97172.25;5083532;28;20970;-77
2023/09/16 09:31:39;;;;;;;13.45;8.48;;;;;;;22.64;100.00;97182.31;5084339;28;20397;-77
2023/09/16 09:34:15;;;;;;;6.82;5.65;;;;;;;22.77;100.00;97178.56;5085264;28;20917;-77
2023/09/16 09:36:46;;;;;;;6.78;5.55;;;;;;;22.91;100.00;97177.44;5084543;28;20971;-77
2023/09/16 09:39:12;;;;;;;6.80;5.18;;;;;;;23.07;100.00;97179.16;5085649;28;20398;-77
2023/09/16 09:41:43;;;;;;;7.32;5.30;;;;;;;23.29;100.00;97182.53;5085288;28;20482;-77
2023/09/16 09:44:10;;;;;;;5.28;4.28;;;;;;;23.54;100.00;97187.59;5085503;28;20428;-77
2023/09/16 09:46:36;;;;;;;4.97;4.47;;;;;;;23.82;100.00;97184.19;5086119;28;20451;-75
2023/09/16 09:49:04;;;;;;;10.77;6.90;;;;;;;23.90;100.00;97188.69;5086700;28;20918;-75
2023/09/16 09:51:30;;;;;;;6.43;5.15;;;;;;;24.14;100.00;97195.91;5090169;28;20428;-75
2023/09/16 09:53:58;;;;;;;6.57;5.28;;;;;;;24.25;100.00;97200.53;5089802;28;20880;-75
2023/09/16 09:56:24;;;;;;;5.68;4.70;;;;;;;24.45;100.00;97195.25;5091220;28;20398;-76
2023/09/16 09:58:51;;;;;;;5.03;4.40;;;;;;;24.64;100.00;97190.78;5090576;28;20989;-76
2023/09/16 10:01:17;;;;;;;4.95;4.25;;;;;;;24.79;100.00;97185.72;5087717;28;20420;-76
2023/09/16 10:03:50;;;;;;;5.07;4.45;;;;;;;24.90;100.00;97186.75;5090746;28;20398;-76
2023/09/16 10:06:19;;;;;;;4.45;3.88;;;;;;;24.99;100.00;97182.00;5088854;28;20397;-76
2023/09/16 10:08:47;;;;;;;4.82;3.60;;;;;;;25.10;100.00;97174.94;5090587;28;20451;-76
2023/09/16 10:11:16;;;;;;;6.28;4.90;;;;;;;25.08;100.00;97179.13;5090707;28;20398;-76
2023/09/16 10:13:43;;;;;;;4.72;4.05;;;;;;;25.06;100.00;97177.53;5089674;28;20394;-75
2023/09/16 10:16:09;;;;;;;5.20;3.83;;;;;;;25.13;100.00;97174.22;5089952;28;20435;-76
2023/09/16 10:18:37;;;;;;;7.55;5.20;;;;;;;25.15;100.00;97176.59;5090528;28;20883;-76
2023/09/16 10:21:03;;;;;;;7.20;4.90;;;;;;;25.17;100.00;97179.72;5090644;28;20405;-76
2023/09/16 10:23:30;;;;;;;6.13;4.38;;;;;;;25.28;100.00;97173.41;5089144;28;20405;-76
2023/09/16 10:25:57;;;;;;;4.55;4.07;;;;;;;25.33;100.00;97175.88;5090464;28;20537;-76
2023/09/16 10:28:25;;;;;;;4.32;3.90;;;;;;;25.50;100.00;97182.03;5088221;28;20914;-76
2023/09/16 10:30:51;;;;;;;4.07;3.67;;;;;;;25.65;100.00;97179.31;5089384;28;20471;-77
2023/09/16 10:33:20;;;;;;;4.30;3.88;;;;;;;25.78;100.00;97180.00;5071714;28;20417;-77
2023/09/16 10:35:46;;;;;;;4.35;3.40;;;;;;;25.85;100.00;97169.31;5089700;28;20569;-76
2023/09/16 10:38:13;;;;;;;3.23;2.93;;;;;;;25.92;100.00;97168.66;5090001;28;20406;-76
2023/09/16 10:40:39;;;;;;;3.85;3.40;;;;;;;25.79;100.00;97174.22;5087935;28;20423;-77
2023/09/16 10:43:06;;;;;;;3.90;3.50;;;;;;;25.79;100.00;97165.28;5089661;28;20417;-76
2023/09/16 10:45:37;;;;;;;3.95;3.40;;;;;;;25.79;100.00;97170.72;5088552;28;20494;-77
2023/09/16 10:48:05;;;;;;;3.63;3.27;;;;;;;25.76;100.00;97166.00;5089589;28;20398;-77
2023/09/16 10:50:37;;;;;;;6.37;3.90;;;;;;;25.66;100.00;97178.19;5089395;28;20941;-77
2023/09/16 10:53:10;;;;;;;4.10;3.47;;;;;;;25.67;100.00;97176.25;5089490;28;21044;-77
2023/09/16 10:55:44;;;;;;;4.85;3.28;;;;;;;25.69;100.00;97174.78;5087345;28;20812;-77
2023/09/16 10:58:15;;;;;;;3.00;2.70;;;;;;;25.77;100.00;97165.66;5087865;28;20447;-77
2023/09/16 11:00:47;;;;;;;3.73;3.00;;;;;;;25.82;100.00;97162.66;5087804;28;20962;-77
2023/09/16 11:03:14;;;;;;;4.18;2.60;;;;;;;25.92;100.00;97166.75;5086776;28;20402;-76
2023/09/16 11:05:41;;;;;;;4.82;3.10;;;;;;;25.90;100.00;97160.88;5089184;28;20403;-76
2023/09/16 11:08:08;;;;;;;4.28;3.65;;;;;;;25.71;100.00;97169.78;5089264;28;20394;-76
2023/09/16 11:10:36;;;;;;;5.25;3.83;;;;;;;25.62;100.00;97163.78;5087784;28;20418;-77
2023/09/16 11:13:04;;;;;;;6.22;4.10;;;;;;;25.56;99.47;97159.72;5090339;28;20455;-77
2023/09/16 11:15:31;;;;;;;4.18;3.63;;;;;;;25.53;100.00;97157.75;5089723;28;20397;-77
2023/09/16 11:18:02;;;;;;;4.13;3.30;;;;;;;25.58;100.00;97153.94;5088393;28;20465;-77
2023/09/16 11:20:32;;;;;;;2.80;2.53;;;;;;;25.73;100.00;97151.22;5084250;28;21200;-76
2023/09/16 11:22:59;;;;;;;2.40;2.20;;;;;;;25.95;100.00;97151.66;5083571;28;20407;-76